N44EF KSNA-KSAN
Flight info
| Callsign | N44EF |
|---|---|
| Flight time | 0h 28m |
| Altitude | 9000 |
| Route | PACIF V208 HUBRD DCT CARDI DCT MZB DCT KSAN |
| Aircraft | BE9L/L-VGDW/C |
Departure
| Time | 2026-04-23 04:29 |
|---|---|
| Airport | John Wayne Orange County International Airport (KSNA) |
Arrival
| Time | 2026-04-23 04:57 |
|---|---|
| Airport | San Diego International Airport (KSAN) |
| Time | Latitude | Longitude | Altitude | Speed | Heading |
|---|---|---|---|---|---|
| 2026-04-23 04:20 | 33.67497 | -117.87179 | 59 ft | 0 kts | 37° |
| 2026-04-23 04:26 | 33.67499 | -117.87176 | 59 ft | 3 kts | 52° |
| 2026-04-23 04:26 | 33.67468 | -117.87110 | 59 ft | 14 kts | 102° |
| 2026-04-23 04:27 | 33.67567 | -117.87028 | 59 ft | 22 kts | 28° |
| 2026-04-23 04:27 | 33.67722 | -117.86934 | 59 ft | 27 kts | 27° |
| 2026-04-23 04:27 | 33.67902 | -117.86822 | 59 ft | 30 kts | 26° |
| 2026-04-23 04:28 | 33.68186 | -117.86580 | 59 ft | 23 kts | 116° |
| 2026-04-23 04:28 | 33.68123 | -117.86533 | 59 ft | 14 kts | 206° |
| 2026-04-23 04:28 | 33.67750 | -117.86768 | 59 ft | 100 kts | 208° |
| 2026-04-23 04:28 | 33.67046 | -117.87197 | 338 ft | 121 kts | 207° |
| 2026-04-23 04:29 | 33.66247 | -117.87749 | 620 ft | 146 kts | 225° |
| 2026-04-23 04:29 | 33.65568 | -117.88734 | 890 ft | 163 kts | 232° |
| 2026-04-23 04:29 | 33.64823 | -117.89844 | 1151 ft | 175 kts | 232° |
| 2026-04-23 04:29 | 33.64046 | -117.91004 | 1406 ft | 182 kts | 232° |
| 2026-04-23 04:30 | 33.63249 | -117.92194 | 1658 ft | 186 kts | 232° |
| 2026-04-23 04:30 | 33.62440 | -117.93407 | 1909 ft | 188 kts | 232° |
| 2026-04-23 04:30 | 33.61618 | -117.94642 | 2160 ft | 189 kts | 232° |
| 2026-04-23 04:30 | 33.60793 | -117.95888 | 2413 ft | 190 kts | 232° |
| 2026-04-23 04:31 | 33.59770 | -117.96822 | 2643 ft | 192 kts | 197° |
| 2026-04-23 04:31 | 33.58459 | -117.96608 | 2882 ft | 197 kts | 153° |
| 2026-04-23 04:31 | 33.57392 | -117.95549 | 3138 ft | 198 kts | 144° |
| 2026-04-23 04:31 | 33.56309 | -117.94565 | 3386 ft | 197 kts | 147° |
| 2026-04-23 04:32 | 33.55179 | -117.93639 | 3637 ft | 196 kts | 149° |
| 2026-04-23 04:32 | 33.54045 | -117.92766 | 3886 ft | 195 kts | 150° |
| 2026-04-23 04:32 | 33.52891 | -117.91910 | 4137 ft | 194 kts | 151° |
| 2026-04-23 04:32 | 33.51756 | -117.91087 | 4384 ft | 193 kts | 152° |
| 2026-04-23 04:33 | 33.50612 | -117.90267 | 4634 ft | 192 kts | 152° |
| 2026-04-23 04:33 | 33.49461 | -117.89449 | 4886 ft | 190 kts | 152° |
| 2026-04-23 04:33 | 33.48327 | -117.88646 | 5135 ft | 189 kts | 152° |
| 2026-04-23 04:33 | 33.47199 | -117.87851 | 5384 ft | 188 kts | 152° |
| 2026-04-23 04:34 | 33.46078 | -117.87061 | 5633 ft | 187 kts | 152° |
| 2026-04-23 04:34 | 33.44957 | -117.86273 | 5884 ft | 186 kts | 152° |
| 2026-04-23 04:34 | 33.43847 | -117.85493 | 6133 ft | 184 kts | 152° |
| 2026-04-23 04:34 | 33.42755 | -117.84727 | 6380 ft | 183 kts | 152° |
| 2026-04-23 04:35 | 33.41660 | -117.83958 | 6630 ft | 182 kts | 152° |
| 2026-04-23 04:35 | 33.40572 | -117.83195 | 6880 ft | 181 kts | 152° |
| 2026-04-23 04:35 | 33.39496 | -117.82441 | 7128 ft | 179 kts | 152° |
| 2026-04-23 04:35 | 33.38419 | -117.81685 | 7378 ft | 178 kts | 152° |
| 2026-04-23 04:36 | 33.37365 | -117.80947 | 7625 ft | 177 kts | 152° |
| 2026-04-23 04:36 | 33.36304 | -117.80204 | 7874 ft | 175 kts | 151° |
| 2026-04-23 04:36 | 33.35258 | -117.79471 | 8122 ft | 174 kts | 151° |
| 2026-04-23 04:36 | 33.34215 | -117.78741 | 8371 ft | 173 kts | 151° |
| 2026-04-23 04:37 | 33.33183 | -117.78018 | 8619 ft | 172 kts | 150° |
| 2026-04-23 04:37 | 33.32155 | -117.77299 | 8867 ft | 170 kts | 150° |
| 2026-04-23 04:37 | 33.31122 | -117.76576 | 8983 ft | 176 kts | 150° |
| 2026-04-23 04:37 | 33.30044 | -117.75822 | 8999 ft | 184 kts | 150° |
| 2026-04-23 04:38 | 33.28952 | -117.74974 | 8988 ft | 192 kts | 136° |
| 2026-04-23 04:38 | 33.28452 | -117.73473 | 9003 ft | 200 kts | 105° |
| 2026-04-23 04:38 | 33.28175 | -117.71830 | 9000 ft | 203 kts | 105° |
| 2026-04-23 04:38 | 33.27911 | -117.70175 | 8999 ft | 205 kts | 104° |
| 2026-04-23 04:39 | 33.27650 | -117.68498 | 8998 ft | 206 kts | 104° |
| 2026-04-23 04:39 | 33.27389 | -117.66798 | 8998 ft | 206 kts | 104° |
| 2026-04-23 04:39 | 33.27118 | -117.65124 | 8999 ft | 204 kts | 97° |
| 2026-04-23 04:39 | 33.26872 | -117.63464 | 8998 ft | 203 kts | 97° |
| 2026-04-23 04:40 | 33.26625 | -117.61814 | 8998 ft | 202 kts | 97° |
| 2026-04-23 04:40 | 33.26376 | -117.60156 | 8998 ft | 201 kts | 97° |
| 2026-04-23 04:40 | 33.26130 | -117.58532 | 8997 ft | 197 kts | 98° |
| 2026-04-23 04:40 | 33.25485 | -117.57097 | 9004 ft | 200 kts | 129° |
| 2026-04-23 04:41 | 33.24547 | -117.55882 | 8998 ft | 199 kts | 128° |
| 2026-04-23 04:41 | 33.23609 | -117.54683 | 8998 ft | 198 kts | 128° |
| 2026-04-23 04:41 | 33.22666 | -117.53489 | 8998 ft | 197 kts | 129° |
| 2026-04-23 04:41 | 33.21728 | -117.52307 | 8998 ft | 197 kts | 129° |
| 2026-04-23 04:42 | 33.20782 | -117.51118 | 8998 ft | 196 kts | 129° |
| 2026-04-23 04:42 | 33.19843 | -117.49938 | 8998 ft | 196 kts | 129° |
| 2026-04-23 04:42 | 33.18896 | -117.48750 | 8998 ft | 196 kts | 129° |
| 2026-04-23 04:42 | 33.17957 | -117.47574 | 8998 ft | 196 kts | 129° |
| 2026-04-23 04:43 | 33.17021 | -117.46402 | 8998 ft | 196 kts | 129° |
| 2026-04-23 04:43 | 33.16075 | -117.45218 | 8998 ft | 196 kts | 129° |
| 2026-04-23 04:43 | 33.15138 | -117.44046 | 8998 ft | 196 kts | 129° |
| 2026-04-23 04:43 | 33.14186 | -117.42855 | 8999 ft | 198 kts | 129° |
| 2026-04-23 04:44 | 33.13070 | -117.41870 | 9004 ft | 207 kts | 152° |
| 2026-04-23 04:44 | 33.11761 | -117.41139 | 9000 ft | 209 kts | 150° |
| 2026-04-23 04:44 | 33.10430 | -117.40396 | 8999 ft | 211 kts | 150° |
| 2026-04-23 04:44 | 33.09098 | -117.39655 | 8998 ft | 212 kts | 150° |
| 2026-04-23 04:45 | 33.07776 | -117.38920 | 8997 ft | 209 kts | 150° |
| 2026-04-23 04:45 | 33.06468 | -117.38193 | 8997 ft | 206 kts | 150° |
| 2026-04-23 04:45 | 33.05174 | -117.37473 | 8997 ft | 205 kts | 150° |
| 2026-04-23 04:45 | 33.03887 | -117.36758 | 8997 ft | 204 kts | 150° |
| 2026-04-23 04:46 | 33.02613 | -117.36050 | 8887 ft | 202 kts | 150° |
| 2026-04-23 04:46 | 33.01338 | -117.35342 | 8674 ft | 203 kts | 150° |
| 2026-04-23 04:46 | 33.00488 | -117.34870 | 8548 ft | 204 kts | 151° |
| 2026-04-23 04:46 | 32.99202 | -117.34157 | 8339 ft | 203 kts | 151° |
| 2026-04-23 04:47 | 32.97933 | -117.33450 | 8028 ft | 200 kts | 156° |
| 2026-04-23 04:47 | 32.96777 | -117.32758 | 7728 ft | 195 kts | 153° |
| 2026-04-23 04:47 | 32.95968 | -117.32000 | 7379 ft | 200 kts | 139° |
| 2026-04-23 04:47 | 32.95161 | -117.30638 | 6968 ft | 206 kts | 120° |
| 2026-04-23 04:48 | 32.94750 | -117.28984 | 6669 ft | 209 kts | 101° |
| 2026-04-23 04:48 | 32.94750 | -117.27268 | 6386 ft | 211 kts | 88° |
| 2026-04-23 04:48 | 32.94861 | -117.25560 | 6264 ft | 203 kts | 91° |
| 2026-04-23 04:48 | 32.94671 | -117.23933 | 6073 ft | 195 kts | 116° |
| 2026-04-23 04:49 | 32.93736 | -117.22829 | 5375 ft | 207 kts | 167° |
| 2026-04-23 04:49 | 32.92365 | -117.22684 | 5361 ft | 191 kts | 183° |
| 2026-04-23 04:49 | 32.91043 | -117.22936 | 5199 ft | 190 kts | 196° |
| 2026-04-23 04:49 | 32.89806 | -117.23386 | 5212 ft | 184 kts | 199° |
| 2026-04-23 04:50 | 32.88626 | -117.23788 | 5260 ft | 179 kts | 199° |
| 2026-04-23 04:50 | 32.87392 | -117.24119 | 5220 ft | 180 kts | 191° |
| 2026-04-23 04:50 | 32.86128 | -117.24272 | 5104 ft | 184 kts | 187° |
| 2026-04-23 04:50 | 32.84860 | -117.24411 | 4974 ft | 188 kts | 188° |
| 2026-04-23 04:51 | 32.83578 | -117.24228 | 5090 ft | 182 kts | 165° |
| 2026-04-23 04:51 | 32.82502 | -117.23434 | 5042 ft | 190 kts | 139° |
| 2026-04-23 04:51 | 32.81709 | -117.22145 | 4929 ft | 196 kts | 123° |
| 2026-04-23 04:51 | 32.81083 | -117.20711 | 4879 ft | 186 kts | 120° |
| 2026-04-23 04:52 | 32.80561 | -117.19512 | 5087 ft | 147 kts | 125° |
| 2026-04-23 04:52 | 32.79977 | -117.18497 | 4782 ft | 153 kts | 130° |
| 2026-04-23 04:52 | 32.79335 | -117.17462 | 4768 ft | 155 kts | 131° |
| 2026-04-23 04:52 | 32.78685 | -117.16385 | 4564 ft | 164 kts | 130° |
| 2026-04-23 04:53 | 32.77945 | -117.15418 | 4175 ft | 154 kts | 145° |
| 2026-04-23 04:53 | 32.77141 | -117.14609 | 3831 ft | 148 kts | 142° |
| 2026-04-23 04:53 | 32.76365 | -117.13844 | 3922 ft | 145 kts | 135° |
| 2026-04-23 04:53 | 32.76058 | -117.12608 | 3835 ft | 154 kts | 100° |
| 2026-04-23 04:54 | 32.75897 | -117.11401 | 3916 ft | 154 kts | 103° |
| 2026-04-23 04:54 | 32.75631 | -117.10106 | 3725 ft | 165 kts | 110° |
| 2026-04-23 04:54 | 32.75025 | -117.08949 | 3563 ft | 168 kts | 141° |
| 2026-04-23 04:54 | 32.73972 | -117.08583 | 3428 ft | 159 kts | 198° |
| 2026-04-23 04:55 | 32.73228 | -117.09509 | 2874 ft | 175 kts | 250° |
| 2026-04-23 04:55 | 32.72620 | -117.10835 | 2063 ft | 194 kts | 249° |
| 2026-04-23 04:55 | 32.72310 | -117.12275 | 1928 ft | 154 kts | 252° |
| 2026-04-23 04:55 | 32.72195 | -117.13442 | 1429 ft | 140 kts | 275° |
| 2026-04-23 04:56 | 32.72310 | -117.14560 | 1035 ft | 135 kts | 284° |
| 2026-04-23 04:56 | 32.72549 | -117.15616 | 634 ft | 133 kts | 288° |
| 2026-04-23 04:56 | 32.72810 | -117.16647 | 312 ft | 127 kts | 288° |
| 2026-04-23 04:56 | 32.73038 | -117.17617 | 128 ft | 117 kts | 287° |
| 2026-04-23 04:57 | 32.73238 | -117.18488 | 98 ft | 101 kts | 287° |
| 2026-04-23 04:57 | 32.73421 | -117.19281 | 24 ft | 94 kts | 287° |
| 2026-04-23 04:57 | 32.73521 | -117.19783 | 20 ft | 38 kts | 251° |
| 2026-04-23 04:57 | 32.73519 | -117.20061 | 20 ft | 19 kts | 285° |
| 2026-04-23 04:58 | 32.73525 | -117.20085 | 20 ft | 5 kts | 285° |
| 2026-04-23 04:58 | 32.73545 | -117.20172 | 20 ft | 15 kts | 279° |
| 2026-04-23 04:58 | 32.73447 | -117.20258 | 20 ft | 23 kts | 198° |
| 2026-04-23 04:58 | 32.73414 | -117.20299 | 20 ft | 0 kts | 248° |
| 2026-04-23 04:59 | 32.73414 | -117.20300 | 20 ft | 1 kts | 246° |
| 2026-04-23 04:59 | 32.73425 | -117.20266 | 20 ft | 11 kts | 34° |
| 2026-04-23 04:59 | 32.73435 | -117.20261 | 20 ft | 0 kts | 21° |
| 2026-04-23 05:00 | 32.73484 | -117.20243 | 20 ft | 13 kts | 15° |
| 2026-04-23 05:00 | 32.73537 | -117.20145 | 20 ft | 21 kts | 104° |
| 2026-04-23 05:00 | 32.73489 | -117.19945 | 20 ft | 28 kts | 105° |
| 2026-04-23 05:00 | 32.73432 | -117.19704 | 20 ft | 31 kts | 106° |
| 2026-04-23 05:01 | 32.73369 | -117.19445 | 20 ft | 33 kts | 105° |
| 2026-04-23 05:01 | 32.73305 | -117.19173 | 20 ft | 34 kts | 107° |
| 2026-04-23 05:01 | 32.73237 | -117.18893 | 20 ft | 35 kts | 106° |
| 2026-04-23 05:01 | 32.73183 | -117.18673 | 20 ft | 0 kts | 107° |
| 2026-04-23 05:02 | 32.73182 | -117.18672 | 20 ft | 1 kts | 107° |
| 2026-04-23 05:02 | 32.73165 | -117.18604 | 20 ft | 14 kts | 108° |
| 2026-04-23 05:02 | 32.73124 | -117.18449 | 20 ft | 23 kts | 107° |
| 2026-04-23 05:03 | 32.73072 | -117.18237 | 20 ft | 29 kts | 105° |
| 2026-04-23 05:03 | 32.73017 | -117.17989 | 20 ft | 32 kts | 106° |
| 2026-04-23 05:03 | 32.72957 | -117.17740 | 20 ft | 25 kts | 104° |
| 2026-04-23 05:03 | 32.72989 | -117.17580 | 20 ft | 19 kts | 22° |
| 2026-04-23 05:04 | 32.73090 | -117.17858 | 20 ft | 79 kts | 284° |
| 2026-04-23 05:04 | 32.73289 | -117.18707 | 87 ft | 121 kts | 287° |
| 2026-04-23 05:04 | 32.73512 | -117.19759 | 202 ft | 142 kts | 283° |
| 2026-04-23 05:04 | 32.73715 | -117.20961 | 307 ft | 151 kts | 282° |
| 2026-04-23 05:05 | 32.73891 | -117.22141 | 559 ft | 134 kts | 282° |
| 2026-04-23 05:05 | 32.74070 | -117.23176 | 699 ft | 123 kts | 284° |
| 2026-04-23 05:05 | 32.74252 | -117.24146 | 797 ft | 120 kts | 285° |
| 2026-04-23 05:05 | 32.74577 | -117.25085 | 785 ft | 122 kts | 313° |
| 2026-04-23 05:06 | 32.75339 | -117.25329 | 954 ft | 117 kts | 12° |
| 2026-04-23 05:06 | 32.76083 | -117.25089 | 1132 ft | 112 kts | 8° |
| 2026-04-23 05:06 | 32.76883 | -117.24931 | 1139 ft | 119 kts | 4° |
| 2026-04-23 05:06 | 32.77672 | -117.24644 | 1210 ft | 124 kts | 35° |
| 2026-04-23 05:07 | 32.77934 | -117.23664 | 1232 ft | 133 kts | 95° |
| 2026-04-23 05:07 | 32.77801 | -117.22581 | 1310 ft | 134 kts | 99° |
| 2026-04-23 05:07 | 32.77595 | -117.21457 | 1387 ft | 144 kts | 104° |
| 2026-04-23 05:07 | 32.77340 | -117.20319 | 1610 ft | 143 kts | 103° |
| 2026-04-23 05:08 | 32.77092 | -117.19117 | 1654 ft | 154 kts | 99° |
| 2026-04-23 05:08 | 32.76978 | -117.17841 | 1696 ft | 163 kts | 95° |
| 2026-04-23 05:08 | 32.76823 | -117.16391 | 1501 ft | 179 kts | 98° |
| 2026-04-23 05:08 | 32.76630 | -117.14893 | 1420 ft | 186 kts | 95° |
| 2026-04-23 05:09 | 32.76577 | -117.13371 | 1455 ft | 184 kts | 91° |
| 2026-04-23 05:09 | 32.76503 | -117.11878 | 1465 ft | 172 kts | 96° |
| 2026-04-23 05:09 | 32.76044 | -117.10729 | 1367 ft | 146 kts | 136° |
| 2026-04-23 05:09 | 32.75216 | -117.10243 | 1262 ft | 124 kts | 171° |
| 2026-04-23 05:10 | 32.74434 | -117.10046 | 1177 ft | 108 kts | 165° |
| 2026-04-23 05:10 | 32.73648 | -117.09966 | 1072 ft | 126 kts | 198° |
| 2026-04-23 05:10 | 32.72773 | -117.10425 | 1027 ft | 148 kts | 203° |
| 2026-04-23 05:10 | 32.71860 | -117.10895 | 1103 ft | 132 kts | 226° |
| 2026-04-23 05:11 | 32.71606 | -117.11852 | 905 ft | 135 kts | 281° |
| 2026-04-23 05:11 | 32.71805 | -117.12929 | 782 ft | 130 kts | 288° |
| 2026-04-23 05:11 | 32.72105 | -117.13882 | 718 ft | 116 kts | 290° |
| 2026-04-23 05:11 | 32.72339 | -117.14793 | 553 ft | 114 kts | 284° |
| 2026-04-23 05:12 | 32.72546 | -117.15672 | 447 ft | 110 kts | 288° |
| 2026-04-23 05:12 | 32.72762 | -117.16520 | 348 ft | 102 kts | 288° |
| 2026-04-23 05:12 | 32.72950 | -117.17309 | 215 ft | 93 kts | 288° |
| 2026-04-23 05:12 | 32.73100 | -117.17958 | 42 ft | 72 kts | 287° |
| 2026-04-23 05:13 | 32.73226 | -117.18461 | 20 ft | 54 kts | 285° |
| 2026-04-23 05:13 | 32.73355 | -117.18817 | 20 ft | 37 kts | 5° |
| 2026-04-23 05:13 | 32.73434 | -117.18839 | 20 ft | 8 kts | 303° |
| 2026-04-23 05:14 | 32.73502 | -117.19054 | 20 ft | 13 kts | 54° |
| 2026-04-23 05:14 | 32.73524 | -117.18996 | 20 ft | 0 kts | 123° |